sensor_id;sensor_type;location;lat;lon;timestamp;temperature;humidity
49777;DHT22;35673;51.482;7.436;2023-03-25T00:01:32;9.70;99.90
49777;DHT22;35673;51.482;7.436;2023-03-25T00:03:59;9.70;99.90
49777;DHT22;35673;51.482;7.436;2023-03-25T00:06:26;9.70;99.90
49777;DHT22;35673;51.482;7.436;2023-03-25T00:08:52;9.70;99.90
49777;DHT22;35673;51.482;7.436;2023-03-25T00:11:17;9.70;99.90
49777;DHT22;35673;51.482;7.436;2023-03-25T00:13:43;9.70;99.90
49777;DHT22;35673;51.482;7.436;2023-03-25T00:16:08;9.70;99.90
49777;DHT22;35673;51.482;7.436;2023-03-25T00:18:34;9.70;99.90
49777;DHT22;35673;51.482;7.436;2023-03-25T00:21:02;9.70;99.90
49777;DHT22;35673;51.482;7.436;2023-03-25T00:23:29;9.60;99.90
49777;DHT22;35673;51.482;7.436;2023-03-25T00:25:55;9.60;99.90
49777;DHT22;35673;51.482;7.436;2023-03-25T00:28:25;9.50;99.90
49777;DHT22;35673;51.482;7.436;2023-03-25T00:30:50;9.50;99.90
49777;DHT22;35673;51.482;7.436;2023-03-25T00:33:17;9.50;99.90
49777;DHT22;35673;51.482;7.436;2023-03-25T00:35:43;9.50;99.90
49777;DHT22;35673;51.482;7.436;2023-03-25T00:38:12;9.50;99.90
49777;DHT22;35673;51.482;7.436;2023-03-25T00:40:38;9.50;99.90
49777;DHT22;35673;51.482;7.436;2023-03-25T00:43:04;9.40;99.90
49777;DHT22;35673;51.482;7.436;2023-03-25T00:45:30;9.50;99.90
49777;DHT22;35673;51.482;7.436;2023-03-25T00:47:56;9.40;99.90
49777;DHT22;35673;51.482;7.436;2023-03-25T00:50:21;9.50;99.90
49777;DHT22;35673;51.482;7.436;2023-03-25T00:52:47;9.50;99.90
49777;DHT22;35673;51.482;7.436;2023-03-25T00:55:13;9.50;99.90
49777;DHT22;35673;51.482;7.436;2023-03-25T00:57:38;9.50;99.90
49777;DHT22;35673;51.482;7.436;2023-03-25T01:00:05;9.50;99.90
49777;DHT22;35673;51.482;7.436;2023-03-25T01:02:32;9.50;99.90
49777;DHT22;35673;51.482;7.436;2023-03-25T01:04:58;9.50;99.90
49777;DHT22;35673;51.482;7.436;2023-03-25T01:07:24;9.50;99.90
49777;DHT22;35673;51.482;7.436;2023-03-25T01:09:50;9.60;99.90
49777;DHT22;35673;51.482;7.436;2023-03-25T01:12:15;9.60;99.90
49777;DHT22;35673;51.482;7.436;2023-03-25T01:14:43;9.60;99.90
49777;DHT22;35673;51.482;7.436;2023-03-25T01:17:08;9.60;99.90
49777;DHT22;35673;51.482;7.436;2023-03-25T01:19:34;9.60;99.90
49777;DHT22;35673;51.482;7.436;2023-03-25T01:22:00;9.60;99.90
49777;DHT22;35673;51.482;7.436;2023-03-25T01:24:25;9.70;99.90
49777;DHT22;35673;51.482;7.436;2023-03-25T01:26:51;9.60;99.90
49777;DHT22;35673;51.482;7.436;2023-03-25T01:29:17;9.60;99.90
49777;DHT22;35673;51.482;7.436;2023-03-25T01:31:43;9.60;99.90
49777;DHT22;35673;51.482;7.436;2023-03-25T01:34:09;9.60;99.90
49777;DHT22;35673;51.482;7.436;2023-03-25T01:36:35;9.60;99.90
49777;DHT22;35673;51.482;7.436;2023-03-25T01:39:02;9.60;99.90
49777;DHT22;35673;51.482;7.436;2023-03-25T01:41:29;9.50;99.90
49777;DHT22;35673;51.482;7.436;2023-03-25T01:46:44;9.50;99.90
49777;DHT22;35673;51.482;7.436;2023-03-25T01:49:21;9.50;99.90
49777;DHT22;35673;51.482;7.436;2023-03-25T01:51:54;9.40;99.90
49777;DHT22;35673;51.482;7.436;2023-03-25T01:54:20;9.40;99.90
49777;DHT22;35673;51.482;7.436;2023-03-25T01:56:46;9.50;99.90
49777;DHT22;35673;51.482;7.436;2023-03-25T01:59:14;9.50;99.90
49777;DHT22;35673;51.482;7.436;2023-03-25T02:01:41;9.50;99.90
49777;DHT22;35673;51.482;7.436;2023-03-25T02:04:09;9.50;99.90
49777;DHT22;35673;51.482;7.436;2023-03-25T02:06:45;9.50;99.90
49777;DHT22;35673;51.482;7.436;2023-03-25T02:09:15;9.50;99.30
49777;DHT22;35673;51.482;7.436;2023-03-25T02:11:42;9.60;99.00
49777;DHT22;35673;51.482;7.436;2023-03-25T02:14:12;9.60;98.30
49777;DHT22;35673;51.482;7.436;2023-03-25T02:16:44;9.60;98.20
49777;DHT22;35673;51.482;7.436;2023-03-25T02:19:26;9.60;97.60
49777;DHT22;35673;51.482;7.436;2023-03-25T02:24:33;9.60;96.90
49777;DHT22;35673;51.482;7.436;2023-03-25T02:27:17;9.50;96.90
49777;DHT22;35673;51.482;7.436;2023-03-25T02:32:23;9.50;96.60
49777;DHT22;35673;51.482;7.436;2023-03-25T02:37:47;9.50;96.70
49777;DHT22;35673;51.482;7.436;2023-03-25T02:40:15;9.50;96.40
49777;DHT22;35673;51.482;7.436;2023-03-25T02:42:53;9.50;96.60
49777;DHT22;35673;51.482;7.436;2023-03-25T02:45:26;9.50;96.30
49777;DHT22;35673;51.482;7.436;2023-03-25T02:47:54;9.50;95.90
49777;DHT22;35673;51.482;7.436;2023-03-25T02:50:23;9.50;95.70
49777;DHT22;35673;51.482;7.436;2023-03-25T02:52:50;9.50;95.50
49777;DHT22;35673;51.482;7.436;2023-03-25T02:55:18;9.50;95.40
49777;DHT22;35673;51.482;7.436;2023-03-25T02:57:45;9.50;95.40
49777;DHT22;35673;51.482;7.436;2023-03-25T03:00:12;9.50;95.80
49777;DHT22;35673;51.482;7.436;2023-03-25T03:02:45;9.50;95.60
49777;DHT22;35673;51.482;7.436;2023-03-25T03:05:22;9.50;96.10
49777;DHT22;35673;51.482;7.436;2023-03-25T03:07:49;9.40;96.10
49777;DHT22;35673;51.482;7.436;2023-03-25T03:10:20;9.40;96.00
49777;DHT22;35673;51.482;7.436;2023-03-25T03:18:04;9.40;95.20
49777;DHT22;35673;51.482;7.436;2023-03-25T03:23:07;9.40;95.60
49777;DHT22;35673;51.482;7.436;2023-03-25T03:25:36;9.40;95.00
49777;DHT22;35673;51.482;7.436;2023-03-25T03:28:05;9.40;94.70
49777;DHT22;35673;51.482;7.436;2023-03-25T03:30:47;9.40;94.70
49777;DHT22;35673;51.482;7.436;2023-03-25T03:33:18;9.40;94.90
49777;DHT22;35673;51.482;7.436;2023-03-25T03:35:51;9.40;95.20
49777;DHT22;35673;51.482;7.436;2023-03-25T03:38:23;9.30;95.40
49777;DHT22;35673;51.482;7.436;2023-03-25T03:40:50;9.30;95.60
49777;DHT22;35673;51.482;7.436;2023-03-25T03:43:23;9.30;95.60
49777;DHT22;35673;51.482;7.436;2023-03-25T03:45:51;9.40;96.10
49777;DHT22;35673;51.482;7.436;2023-03-25T03:48:22;9.30;95.60
49777;DHT22;35673;51.482;7.436;2023-03-25T03:50:50;9.30;95.80
49777;DHT22;35673;51.482;7.436;2023-03-25T03:53:22;9.20;97.60
49777;DHT22;35673;51.482;7.436;2023-03-25T03:55:51;9.10;99.00
49777;DHT22;35673;51.482;7.436;2023-03-25T03:58:18;9.00;99.90
49777;DHT22;35673;51.482;7.436;2023-03-25T04:00:49;8.90;99.90
49777;DHT22;35673;51.482;7.436;2023-03-25T04:03:18;8.90;99.90
49777;DHT22;35673;51.482;7.436;2023-03-25T04:05:52;8.90;99.90
49777;DHT22;35673;51.482;7.436;2023-03-25T04:08:21;8.90;99.90
49777;DHT22;35673;51.482;7.436;2023-03-25T04:10:51;9.00;99.90
49777;DHT22;35673;51.482;7.436;2023-03-25T04:13:19;9.00;99.90
49777;DHT22;35673;51.482;7.436;2023-03-25T04:15:45;9.00;99.90
49777;DHT22;35673;51.482;7.436;2023-03-25T04:18:10;9.00;99.90
49777;DHT22;35673;51.482;7.436;2023-03-25T04:20:36;9.00;99.90
49777;DHT22;35673;51.482;7.436;2023-03-25T04:23:02;9.00;99.90
49777;DHT22;35673;51.482;7.436;2023-03-25T04:25:29;8.90;99.90
49777;DHT22;35673;51.482;7.436;2023-03-25T04:27:56;8.90;99.90
49777;DHT22;35673;51.482;7.436;2023-03-25T04:30:23;8.90;99.90
49777;DHT22;35673;51.482;7.436;2023-03-25T04:32:50;8.90;99.90
49777;DHT22;35673;51.482;7.436;2023-03-25T04:35:16;8.90;99.90
49777;DHT22;35673;51.482;7.436;2023-03-25T04:37:43;9.00;99.90
49777;DHT22;35673;51.482;7.436;2023-03-25T04:40:13;9.00;99.90
49777;DHT22;35673;51.482;7.436;2023-03-25T04:42:40;9.00;99.90
49777;DHT22;35673;51.482;7.436;2023-03-25T04:45:07;9.00;99.90
49777;DHT22;35673;51.482;7.436;2023-03-25T04:47:33;9.00;99.90
49777;DHT22;35673;51.482;7.436;2023-03-25T04:49:59;9.00;99.90
49777;DHT22;35673;51.482;7.436;2023-03-25T04:52:24;9.10;99.90
49777;DHT22;35673;51.482;7.436;2023-03-25T04:54:50;9.00;99.90
49777;DHT22;35673;51.482;7.436;2023-03-25T04:57:15;8.90;99.90
49777;DHT22;35673;51.482;7.436;2023-03-25T04:59:41;8.90;99.90
49777;DHT22;35673;51.482;7.436;2023-03-25T05:02:06;8.90;99.90
49777;DHT22;35673;51.482;7.436;2023-03-25T05:04:38;9.00;99.90
49777;DHT22;35673;51.482;7.436;2023-03-25T05:07:06;8.90;99.90
49777;DHT22;35673;51.482;7.436;2023-03-25T05:09:31;9.00;99.90
49777;DHT22;35673;51.482;7.436;2023-03-25T05:11:57;8.90;99.90
49777;DHT22;35673;51.482;7.436;2023-03-25T05:14:22;8.90;99.90
49777;DHT22;35673;51.482;7.436;2023-03-25T05:16:48;8.90;99.90
49777;DHT22;35673;51.482;7.436;2023-03-25T05:19:14;8.90;99.90
49777;DHT22;35673;51.482;7.436;2023-03-25T05:21:40;8.80;99.90
49777;DHT22;35673;51.482;7.436;2023-03-25T05:24:07;8.80;99.90
49777;DHT22;35673;51.482;7.436;2023-03-25T05:26:37;8.80;99.90
49777;DHT22;35673;51.482;7.436;2023-03-25T05:29:04;8.80;99.90
49777;DHT22;35673;51.482;7.436;2023-03-25T05:31:30;8.90;99.90
49777;DHT22;35673;51.482;7.436;2023-03-25T05:33:55;8.90;99.90
49777;DHT22;35673;51.482;7.436;2023-03-25T05:36:21;8.90;99.90
49777;DHT22;35673;51.482;7.436;2023-03-25T05:38:49;8.90;99.90
49777;DHT22;35673;51.482;7.436;2023-03-25T05:41:15;8.90;99.90
49777;DHT22;35673;51.482;7.436;2023-03-25T05:43:41;8.90;99.90
49777;DHT22;35673;51.482;7.436;2023-03-25T05:46:15;8.80;99.90
49777;DHT22;35673;51.482;7.436;2023-03-25T05:48:41;8.70;99.90
49777;DHT22;35673;51.482;7.436;2023-03-25T05:51:14;8.60;99.90
49777;DHT22;35673;51.482;7.436;2023-03-25T05:53:44;8.50;99.90
49777;DHT22;35673;51.482;7.436;2023-03-25T05:56:14;8.50;99.90
49777;DHT22;35673;51.482;7.436;2023-03-25T05:58:42;8.50;99.90
49777;DHT22;35673;51.482;7.436;2023-03-25T06:01:09;8.50;99.90
49777;DHT22;35673;51.482;7.436;2023-03-25T06:03:34;8.50;99.90
49777;DHT22;35673;51.482;7.436;2023-03-25T06:06:00;8.60;99.90
49777;DHT22;35673;51.482;7.436;2023-03-25T06:08:26;8.60;99.90
49777;DHT22;35673;51.482;7.436;2023-03-25T06:10:54;8.70;99.90
49777;DHT22;35673;51.482;7.436;2023-03-25T06:13:23;8.70;99.90
49777;DHT22;35673;51.482;7.436;2023-03-25T06:15:49;8.80;99.90
49777;DHT22;35673;51.482;7.436;2023-03-25T06:18:21;8.80;99.90
49777;DHT22;35673;51.482;7.436;2023-03-25T06:20:49;8.80;99.90
49777;DHT22;35673;51.482;7.436;2023-03-25T06:23:16;8.80;99.90
49777;DHT22;35673;51.482;7.436;2023-03-25T06:25:41;8.90;99.90
49777;DHT22;35673;51.482;7.436;2023-03-25T06:28:07;8.90;99.90
49777;DHT22;35673;51.482;7.436;2023-03-25T06:30:32;8.90;99.90
49777;DHT22;35673;51.482;7.436;2023-03-25T06:32:57;8.90;99.90
49777;DHT22;35673;51.482;7.436;2023-03-25T06:35:27;8.90;99.90
49777;DHT22;35673;51.482;7.436;2023-03-25T06:37:52;9.00;99.90
49777;DHT22;35673;51.482;7.436;2023-03-25T06:40:18;9.00;99.90
49777;DHT22;35673;51.482;7.436;2023-03-25T06:42:44;9.00;99.90
49777;DHT22;35673;51.482;7.436;2023-03-25T06:45:10;9.00;99.90
49777;DHT22;35673;51.482;7.436;2023-03-25T06:47:37;9.00;99.90
49777;DHT22;35673;51.482;7.436;2023-03-25T06:50:02;8.90;99.90
49777;DHT22;35673;51.482;7.436;2023-03-25T06:52:28;8.80;99.90
49777;DHT22;35673;51.482;7.436;2023-03-25T06:54:54;8.80;99.90
49777;DHT22;35673;51.482;7.436;2023-03-25T06:57:19;8.80;99.90
49777;DHT22;35673;51.482;7.436;2023-03-25T06:59:45;8.80;99.90
49777;DHT22;35673;51.482;7.436;2023-03-25T07:02:11;8.80;99.90
49777;DHT22;35673;51.482;7.436;2023-03-25T07:04:38;8.80;99.90
49777;DHT22;35673;51.482;7.436;2023-03-25T07:07:03;8.80;99.90
49777;DHT22;35673;51.482;7.436;2023-03-25T07:09:29;8.90;99.90
49777;DHT22;35673;51.482;7.436;2023-03-25T07:11:54;8.90;99.90
49777;DHT22;35673;51.482;7.436;2023-03-25T07:14:20;8.90;99.90
49777;DHT22;35673;51.482;7.436;2023-03-25T07:16:45;8.90;99.90
49777;DHT22;35673;51.482;7.436;2023-03-25T07:19:11;8.70;99.90
49777;DHT22;35673;51.482;7.436;2023-03-25T07:21:36;8.70;99.90
49777;DHT22;35673;51.482;7.436;2023-03-25T07:24:01;8.70;99.90
49777;DHT22;35673;51.482;7.436;2023-03-25T07:26:27;8.80;99.90
49777;DHT22;35673;51.482;7.436;2023-03-25T07:28:52;8.80;99.90
49777;DHT22;35673;51.482;7.436;2023-03-25T07:31:18;8.90;99.90
49777;DHT22;35673;51.482;7.436;2023-03-25T07:33:43;8.90;99.90
49777;DHT22;35673;51.482;7.436;2023-03-25T07:36:09;9.00;99.90
49777;DHT22;35673;51.482;7.436;2023-03-25T07:38:35;9.10;99.90
49777;DHT22;35673;51.482;7.436;2023-03-25T07:41:05;9.20;99.90
49777;DHT22;35673;51.482;7.436;2023-03-25T07:43:30;9.30;99.90
49777;DHT22;35673;51.482;7.436;2023-03-25T07:45:57;9.40;99.90
49777;DHT22;35673;51.482;7.436;2023-03-25T07:48:22;9.50;99.90
49777;DHT22;35673;51.482;7.436;2023-03-25T07:50:49;9.60;99.90
49777;DHT22;35673;51.482;7.436;2023-03-25T07:53:15;9.70;99.90
49777;DHT22;35673;51.482;7.436;2023-03-25T07:55:40;9.70;99.90
49777;DHT22;35673;51.482;7.436;2023-03-25T07:58:06;9.70;99.90
49777;DHT22;35673;51.482;7.436;2023-03-25T08:00:31;9.70;99.90
49777;DHT22;35673;51.482;7.436;2023-03-25T08:02:57;9.60;99.90
49777;DHT22;35673;51.482;7.436;2023-03-25T08:05:22;9.60;99.90
49777;DHT22;35673;51.482;7.436;2023-03-25T08:07:49;9.50;99.90
49777;DHT22;35673;51.482;7.436;2023-03-25T08:10:15;9.50;99.90
49777;DHT22;35673;51.482;7.436;2023-03-25T08:15:43;9.40;99.90
49777;DHT22;35673;51.482;7.436;2023-03-25T08:18:09;9.40;99.90
49777;DHT22;35673;51.482;7.436;2023-03-25T08:20:34;9.40;99.90
49777;DHT22;35673;51.482;7.436;2023-03-25T08:23:00;9.50;99.90
49777;DHT22;35673;51.482;7.436;2023-03-25T08:25:27;9.50;99.90
49777;DHT22;35673;51.482;7.436;2023-03-25T08:27:53;9.50;99.90
49777;DHT22;35673;51.482;7.436;2023-03-25T08:30:19;9.40;99.90
49777;DHT22;35673;51.482;7.436;2023-03-25T08:32:44;9.40;99.90
49777;DHT22;35673;51.482;7.436;2023-03-25T08:35:10;9.40;99.90
49777;DHT22;35673;51.482;7.436;2023-03-25T08:37:36;9.40;98.80
49777;DHT22;35673;51.482;7.436;2023-03-25T08:40:02;9.50;97.40
49777;DHT22;35673;51.482;7.436;2023-03-25T08:42:31;9.60;97.00
49777;DHT22;35673;51.482;7.436;2023-03-25T08:44:57;9.70;95.90
49777;DHT22;35673;51.482;7.436;2023-03-25T08:47:22;9.90;95.20
49777;DHT22;35673;51.482;7.436;2023-03-25T08:49:48;10.00;94.20
49777;DHT22;35673;51.482;7.436;2023-03-25T08:52:13;10.10;94.30
49777;DHT22;35673;51.482;7.436;2023-03-25T08:54:39;10.20;94.40
49777;DHT22;35673;51.482;7.436;2023-03-25T08:57:04;10.20;93.30
49777;DHT22;35673;51.482;7.436;2023-03-25T08:59:30;10.20;93.40
49777;DHT22;35673;51.482;7.436;2023-03-25T09:01:55;10.10;93.70
49777;DHT22;35673;51.482;7.436;2023-03-25T09:04:21;10.10;93.00
49777;DHT22;35673;51.482;7.436;2023-03-25T09:06:46;10.00;93.40
49777;DHT22;35673;51.482;7.436;2023-03-25T09:09:14;10.00;93.30
49777;DHT22;35673;51.482;7.436;2023-03-25T09:11:39;10.10;92.90
49777;DHT22;35673;51.482;7.436;2023-03-25T09:14:05;10.10;92.90
49777;DHT22;35673;51.482;7.436;2023-03-25T09:16:31;10.10;93.10
49777;DHT22;35673;51.482;7.436;2023-03-25T09:18:57;10.20;93.10
49777;DHT22;35673;51.482;7.436;2023-03-25T09:21:22;10.10;92.80
49777;DHT22;35673;51.482;7.436;2023-03-25T09:23:48;10.20;92.70
49777;DHT22;35673;51.482;7.436;2023-03-25T09:26:13;10.10;93.00
49777;DHT22;35673;51.482;7.436;2023-03-25T09:28:39;10.20;93.20
49777;DHT22;35673;51.482;7.436;2023-03-25T09:31:04;10.20;93.20
49777;DHT22;35673;51.482;7.436;2023-03-25T09:33:30;10.30;93.20
49777;DHT22;35673;51.482;7.436;2023-03-25T09:35:56;10.30;92.80
49777;DHT22;35673;51.482;7.436;2023-03-25T09:38:21;10.30;92.50
49777;DHT22;35673;51.482;7.436;2023-03-25T09:40:47;10.20;92.20
49777;DHT22;35673;51.482;7.436;2023-03-25T09:43:29;10.30;92.30
49777;DHT22;35673;51.482;7.436;2023-03-25T09:45:57;10.30;92.50
49777;DHT22;35673;51.482;7.436;2023-03-25T09:48:28;10.40;92.00
49777;DHT22;35673;51.482;7.436;2023-03-25T09:50:55;10.70;92.30
49777;DHT22;35673;51.482;7.436;2023-03-25T09:53:34;11.00;92.20
49777;DHT22;35673;51.482;7.436;2023-03-25T09:56:02;10.90;91.90
49777;DHT22;35673;51.482;7.436;2023-03-25T10:01:03;11.10;91.20
49777;DHT22;35673;51.482;7.436;2023-03-25T10:03:36;10.90;91.40
49777;DHT22;35673;51.482;7.436;2023-03-25T10:06:07;10.70;92.40
49777;DHT22;35673;51.482;7.436;2023-03-25T10:08:58;10.50;94.10
49777;DHT22;35673;51.482;7.436;2023-03-25T10:13:54;10.50;94.90
49777;DHT22;35673;51.482;7.436;2023-03-25T10:19:08;10.80;93.50
49777;DHT22;35673;51.482;7.436;2023-03-25T10:26:36;11.30;90.80
49777;DHT22;35673;51.482;7.436;2023-03-25T10:29:15;11.40;90.20
49777;DHT22;35673;51.482;7.436;2023-03-25T10:31:47;11.70;90.30
49777;DHT22;35673;51.482;7.436;2023-03-25T10:34:15;11.90;87.60
49777;DHT22;35673;51.482;7.436;2023-03-25T10:36:43;12.10;85.60
49777;DHT22;35673;51.482;7.436;2023-03-25T10:39:12;12.20;84.50
49777;DHT22;35673;51.482;7.436;2023-03-25T10:41:39;12.10;83.80
49777;DHT22;35673;51.482;7.436;2023-03-25T10:44:11;12.00;85.90
49777;DHT22;35673;51.482;7.436;2023-03-25T10:46:42;11.70;87.70
49777;DHT22;35673;51.482;7.436;2023-03-25T10:49:15;11.50;87.10
49777;DHT22;35673;51.482;7.436;2023-03-25T10:51:42;11.50;89.60
49777;DHT22;35673;51.482;7.436;2023-03-25T10:54:09;11.30;88.80
49777;DHT22;35673;51.482;7.436;2023-03-25T10:56:35;11.30;89.20
49777;DHT22;35673;51.482;7.436;2023-03-25T11:01:55;11.50;87.10
49777;DHT22;35673;51.482;7.436;2023-03-25T11:04:22;11.70;85.50
49777;DHT22;35673;51.482;7.436;2023-03-25T11:06:53;11.70;84.70
49777;DHT22;35673;51.482;7.436;2023-03-25T11:09:23;11.80;84.20
49777;DHT22;35673;51.482;7.436;2023-03-25T11:11:49;12.10;82.90
49777;DHT22;35673;51.482;7.436;2023-03-25T11:14:15;12.10;81.90
49777;DHT22;35673;51.482;7.436;2023-03-25T11:16:46;12.20;81.70
49777;DHT22;35673;51.482;7.436;2023-03-25T11:19:17;12.20;81.30
49777;DHT22;35673;51.482;7.436;2023-03-25T11:21:45;12.10;83.10
49777;DHT22;35673;51.482;7.436;2023-03-25T11:24:12;11.50;87.20
49777;DHT22;35673;51.482;7.436;2023-03-25T11:26:39;11.00;89.80
49777;DHT22;35673;51.482;7.436;2023-03-25T11:29:06;10.90;90.50
49777;DHT22;35673;51.482;7.436;2023-03-25T11:31:33;11.20;90.40
49777;DHT22;35673;51.482;7.436;2023-03-25T11:34:08;11.50;89.40
49777;DHT22;35673;51.482;7.436;2023-03-25T11:39:18;11.30;90.40
49777;DHT22;35673;51.482;7.436;2023-03-25T11:41:49;11.20;91.40
49777;DHT22;35673;51.482;7.436;2023-03-25T11:44:21;11.10;91.80
49777;DHT22;35673;51.482;7.436;2023-03-25T11:46:49;11.30;91.80
49777;DHT22;35673;51.482;7.436;2023-03-25T11:49:17;11.60;90.60
49777;DHT22;35673;51.482;7.436;2023-03-25T11:51:43;12.00;88.80
49777;DHT22;35673;51.482;7.436;2023-03-25T11:54:10;12.40;87.20
49777;DHT22;35673;51.482;7.436;2023-03-25T11:56:37;12.70;87.20
49777;DHT22;35673;51.482;7.436;2023-03-25T11:59:06;12.70;86.40
49777;DHT22;35673;51.482;7.436;2023-03-25T12:01:51;12.90;86.20
49777;DHT22;35673;51.482;7.436;2023-03-25T12:04:18;12.80;85.20
49777;DHT22;35673;51.482;7.436;2023-03-25T12:09:20;11.90;90.90
49777;DHT22;35673;51.482;7.436;2023-03-25T12:14:35;11.00;98.90
49777;DHT22;35673;51.482;7.436;2023-03-25T12:24:49;11.80;93.30
49777;DHT22;35673;51.482;7.436;2023-03-25T12:43:21;12.80;91.20
49777;DHT22;35673;51.482;7.436;2023-03-25T12:45:52;12.90;89.50
49777;DHT22;35673;51.482;7.436;2023-03-25T12:48:22;13.20;87.30
49777;DHT22;35673;51.482;7.436;2023-03-25T12:50:54;13.60;82.90
49777;DHT22;35673;51.482;7.436;2023-03-25T12:53:38;14.10;81.70
49777;DHT22;35673;51.482;7.436;2023-03-25T12:56:21;14.40;79.00
49777;DHT22;35673;51.482;7.436;2023-03-25T12:58:53;14.00;79.60
49777;DHT22;35673;51.482;7.436;2023-03-25T13:09:07;15.30;74.90
49777;DHT22;35673;51.482;7.436;2023-03-25T13:11:42;15.80;72.30
49777;DHT22;35673;51.482;7.436;2023-03-25T13:14:26;14.80;73.20
49777;DHT22;35673;51.482;7.436;2023-03-25T13:16:54;14.90;73.80
49777;DHT22;35673;51.482;7.436;2023-03-25T13:19:21;14.70;74.50
49777;DHT22;35673;51.482;7.436;2023-03-25T13:21:49;15.40;72.00
49777;DHT22;35673;51.482;7.436;2023-03-25T13:26:43;14.60;72.30
49777;DHT22;35673;51.482;7.436;2023-03-25T13:29:22;14.30;74.40
49777;DHT22;35673;51.482;7.436;2023-03-25T13:31:48;14.40;75.20
49777;DHT22;35673;51.482;7.436;2023-03-25T13:37:04;14.10;75.10
49777;DHT22;35673;51.482;7.436;2023-03-25T13:42:05;13.40;75.80
49777;DHT22;35673;51.482;7.436;2023-03-25T13:47:00;12.60;79.00
49777;DHT22;35673;51.482;7.436;2023-03-25T13:49:46;12.20;83.00
49777;DHT22;35673;51.482;7.436;2023-03-25T13:52:14;11.80;86.70
49777;DHT22;35673;51.482;7.436;2023-03-25T13:54:42;11.30;88.90
49777;DHT22;35673;51.482;7.436;2023-03-25T14:02:16;11.50;91.10
49777;DHT22;35673;51.482;7.436;2023-03-25T14:12:36;15.60;76.20
49777;DHT22;35673;51.482;7.436;2023-03-25T14:15:03;16.40;71.80
49777;DHT22;35673;51.482;7.436;2023-03-25T14:17:30;15.60;69.30
49777;DHT22;35673;51.482;7.436;2023-03-25T14:19:57;15.20;71.50
49777;DHT22;35673;51.482;7.436;2023-03-25T14:22:27;14.50;73.60
49777;DHT22;35673;51.482;7.436;2023-03-25T14:24:54;13.50;76.10
49777;DHT22;35673;51.482;7.436;2023-03-25T14:27:28;12.90;78.60
49777;DHT22;35673;51.482;7.436;2023-03-25T14:30:05;14.40;78.30
49777;DHT22;35673;51.482;7.436;2023-03-25T14:32:35;16.20;71.10
49777;DHT22;35673;51.482;7.436;2023-03-25T14:37:45;16.40;68.50
49777;DHT22;35673;51.482;7.436;2023-03-25T14:42:57;14.10;72.90
49777;DHT22;35673;51.482;7.436;2023-03-25T14:47:56;12.00;81.80
49777;DHT22;35673;51.482;7.436;2023-03-25T14:52:49;10.70;91.50
49777;DHT22;35673;51.482;7.436;2023-03-25T14:55:19;10.30;96.60
49777;DHT22;35673;51.482;7.436;2023-03-25T14:57:45;10.10;99.90
49777;DHT22;35673;51.482;7.436;2023-03-25T15:00:49;9.80;99.90
49777;DHT22;35673;51.482;7.436;2023-03-25T15:03:13;9.60;99.90
49777;DHT22;35673;51.482;7.436;2023-03-25T15:05:40;9.50;99.90
49777;DHT22;35673;51.482;7.436;2023-03-25T15:13:02;14.80;95.00
49777;DHT22;35673;51.482;7.436;2023-03-25T15:15:50;16.50;83.70
49777;DHT22;35673;51.482;7.436;2023-03-25T15:20:54;15.60;79.80
49777;DHT22;35673;51.482;7.436;2023-03-25T15:23:31;13.40;86.90
49777;DHT22;35673;51.482;7.436;2023-03-25T15:25:58;12.20;92.20
49777;DHT22;35673;51.482;7.436;2023-03-25T15:36:10;10.80;99.90
49777;DHT22;35673;51.482;7.436;2023-03-25T15:38:48;10.30;99.90
49777;DHT22;35673;51.482;7.436;2023-03-25T15:44:20;10.00;99.90
49777;DHT22;35673;51.482;7.436;2023-03-25T15:47:06;10.00;99.90
49777;DHT22;35673;51.482;7.436;2023-03-25T15:49:41;10.00;99.90
49777;DHT22;35673;51.482;7.436;2023-03-25T15:54:44;9.90;99.90
49777;DHT22;35673;51.482;7.436;2023-03-25T15:59:56;12.30;96.10
49777;DHT22;35673;51.482;7.436;2023-03-25T16:02:27;11.40;97.80
49777;DHT22;35673;51.482;7.436;2023-03-25T16:04:54;12.90;93.10
49777;DHT22;35673;51.482;7.436;2023-03-25T16:07:21;13.50;90.60
49777;DHT22;35673;51.482;7.436;2023-03-25T16:09:49;13.20;89.10
49777;DHT22;35673;51.482;7.436;2023-03-25T16:12:19;12.90;90.60
49777;DHT22;35673;51.482;7.436;2023-03-25T16:14:45;13.20;90.20
49777;DHT22;35673;51.482;7.436;2023-03-25T16:17:11;12.40;90.30
49777;DHT22;35673;51.482;7.436;2023-03-25T16:19:38;11.40;93.40
49777;DHT22;35673;51.482;7.436;2023-03-25T16:22:14;10.90;97.00
49777;DHT22;35673;51.482;7.436;2023-03-25T16:24:42;10.60;99.90
49777;DHT22;35673;51.482;7.436;2023-03-25T16:27:51;10.80;99.30
49777;DHT22;35673;51.482;7.436;2023-03-25T16:29:57;11.40;96.10
49777;DHT22;35673;51.482;7.436;2023-03-25T16:32:23;11.30;95.70
49777;DHT22;35673;51.482;7.436;2023-03-25T16:34:49;10.90;96.40
49777;DHT22;35673;51.482;7.436;2023-03-25T16:37:18;10.60;98.30
49777;DHT22;35673;51.482;7.436;2023-03-25T16:39:48;10.40;99.80
49777;DHT22;35673;51.482;7.436;2023-03-25T16:44:44;10.20;99.90
49777;DHT22;35673;51.482;7.436;2023-03-25T16:47:10;10.20;99.90
49777;DHT22;35673;51.482;7.436;2023-03-25T16:49:36;10.20;99.90
49777;DHT22;35673;51.482;7.436;2023-03-25T16:52:05;10.20;99.90
49777;DHT22;35673;51.482;7.436;2023-03-25T16:54:35;10.60;98.50
49777;DHT22;35673;51.482;7.436;2023-03-25T16:57:04;10.50;99.90
49777;DHT22;35673;51.482;7.436;2023-03-25T16:59:31;10.50;99.90
49777;DHT22;35673;51.482;7.436;2023-03-25T17:01:59;10.40;99.90
49777;DHT22;35673;51.482;7.436;2023-03-25T17:04:25;10.40;99.90
49777;DHT22;35673;51.482;7.436;2023-03-25T17:07:13;10.30;99.90
49777;DHT22;35673;51.482;7.436;2023-03-25T17:09:40;10.30;99.90
49777;DHT22;35673;51.482;7.436;2023-03-25T17:12:15;10.30;99.90
49777;DHT22;35673;51.482;7.436;2023-03-25T17:14:41;10.30;99.90
49777;DHT22;35673;51.482;7.436;2023-03-25T17:17:08;10.30;99.90
49777;DHT22;35673;51.482;7.436;2023-03-25T17:19:37;10.30;99.90
49777;DHT22;35673;51.482;7.436;2023-03-25T17:27:35;10.20;99.90
49777;DHT22;35673;51.482;7.436;2023-03-25T17:32:47;10.20;99.90
49777;DHT22;35673;51.482;7.436;2023-03-25T17:35:23;10.20;99.90
49777;DHT22;35673;51.482;7.436;2023-03-25T17:37:49;10.20;99.90
49777;DHT22;35673;51.482;7.436;2023-03-25T17:40:19;10.20;99.90
49777;DHT22;35673;51.482;7.436;2023-03-25T17:42:45;10.00;99.90
49777;DHT22;35673;51.482;7.436;2023-03-25T17:45:12;9.70;99.90
49777;DHT22;35673;51.482;7.436;2023-03-25T17:47:38;9.40;99.90
49777;DHT22;35673;51.482;7.436;2023-03-25T17:50:14;9.20;99.90
49777;DHT22;35673;51.482;7.436;2023-03-25T17:52:40;9.00;99.90
49777;DHT22;35673;51.482;7.436;2023-03-25T17:55:06;8.90;99.90
49777;DHT22;35673;51.482;7.436;2023-03-25T17:57:32;8.80;99.90
49777;DHT22;35673;51.482;7.436;2023-03-25T17:59:57;8.80;99.90
49777;DHT22;35673;51.482;7.436;2023-03-25T18:02:23;8.80;99.90
49777;DHT22;35673;51.482;7.436;2023-03-25T18:04:48;8.70;99.90
49777;DHT22;35673;51.482;7.436;2023-03-25T18:07:14;8.70;99.90
49777;DHT22;35673;51.482;7.436;2023-03-25T18:09:39;8.70;99.90
49777;DHT22;35673;51.482;7.436;2023-03-25T18:12:06;8.70;99.90